createdAt,value
2019-05-22T00:01:39.308Z,148.75
2019-05-22T00:04:13.428Z,149.82
2019-05-22T00:06:43.058Z,148.68
2019-05-22T00:09:18.756Z,149.12
2019-05-22T00:11:48.264Z,149.00
2019-05-22T00:14:15.572Z,149.07
2019-05-22T00:16:46.265Z,147.20
2019-05-22T00:19:14.422Z,149.12
2019-05-22T00:21:41.713Z,150.05
2019-05-22T00:24:10.866Z,149.75
2019-05-22T00:26:39.843Z,149.87
2019-05-22T00:29:07.268Z,149.65
2019-05-22T00:31:34.542Z,149.60
2019-05-22T00:34:02.899Z,150.15
2019-05-22T00:36:31.914Z,149.05
2019-05-22T00:38:59.137Z,149.47
2019-05-22T00:41:28.123Z,149.85
2019-05-22T00:43:56.154Z,149.55
2019-05-22T00:46:24.507Z,151.12
2019-05-22T00:48:53.728Z,150.80
2019-05-22T00:51:36.908Z,151.27
2019-05-22T00:54:14.133Z,151.07
2019-05-22T00:56:50.906Z,150.80
2019-05-22T00:59:24.360Z,149.27
2019-05-22T01:01:52.786Z,149.90
2019-05-22T01:04:24.959Z,151.18
2019-05-22T01:06:53.983Z,150.57
2019-05-22T01:09:31.041Z,149.02
2019-05-22T01:11:59.898Z,148.50
2019-05-22T01:14:42.058Z,149.50
2019-05-22T01:16:56.421Z,150.15
2019-05-22T01:19:24.159Z,148.40
2019-05-22T01:21:51.712Z,150.35
2019-05-22T01:24:18.872Z,147.20
2019-05-22T01:26:49.371Z,150.45
2019-05-22T01:29:18.104Z,149.75
2019-05-22T01:31:50.073Z,151.18
2019-05-22T01:34:23.442Z,150.07
2019-05-22T01:36:54.759Z,150.45
2019-05-22T01:39:45.559Z,150.12
2019-05-22T01:42:19.426Z,150.12
2019-05-22T01:45:01.822Z,149.75
2019-05-22T01:47:33.045Z,150.22
2019-05-22T01:50:00.606Z,149.77
2019-05-22T01:52:27.838Z,149.38
2019-05-22T01:54:56.816Z,149.57
2019-05-22T01:57:25.802Z,150.62
2019-05-22T01:59:53.419Z,149.82
2019-05-22T02:02:23.451Z,149.20
2019-05-22T02:04:52.551Z,150.95
2019-05-22T02:07:21.003Z,150.40
2019-05-22T02:09:51.369Z,148.78
2019-05-22T02:12:31.241Z,151.15
2019-05-22T02:14:59.435Z,150.90
2019-05-22T02:17:30.982Z,151.68
2019-05-22T02:19:59.146Z,151.15
2019-05-22T02:22:26.433Z,151.50
2019-05-22T02:24:54.174Z,152.60
2019-05-22T02:27:23.409Z,150.97
2019-05-22T02:29:54.239Z,150.50
2019-05-22T02:32:23.172Z,150.35
2019-05-22T02:34:51.204Z,151.42
2019-05-22T02:37:19.330Z,150.72
2019-05-22T02:39:46.938Z,150.00
2019-05-22T02:42:20.056Z,150.30
2019-05-22T02:44:48.174Z,150.40
2019-05-22T02:47:20.742Z,148.78
2019-05-22T02:49:48.092Z,148.30
2019-05-22T02:52:15.891Z,148.87
2019-05-22T02:54:43.526Z,148.20
2019-05-22T02:57:12.328Z,149.23
2019-05-22T02:59:39.661Z,147.35
2019-05-22T03:02:06.907Z,148.00
2019-05-22T03:05:10.211Z,148.50
2019-05-22T03:07:39.604Z,147.57
2019-05-22T03:10:15.299Z,147.22
2019-05-22T03:12:44.522Z,148.60
2019-05-22T03:15:15.436Z,147.93
2019-05-22T03:17:44.281Z,150.00
2019-05-22T03:20:15.573Z,150.93
2019-05-22T03:22:58.174Z,148.30
2019-05-22T03:25:26.469Z,149.70
2019-05-22T03:27:53.887Z,149.95
2019-05-22T03:30:26.108Z,149.82
2019-05-22T03:32:55.680Z,152.32
2019-05-22T03:35:25.555Z,151.85
2019-05-22T03:37:53.710Z,151.07
2019-05-22T03:40:22.516Z,150.32
2019-05-22T03:42:53.192Z,151.97
2019-05-22T03:45:22.912Z,152.80
2019-05-22T03:47:51.116Z,151.82
2019-05-22T03:50:19.320Z,151.80
2019-05-22T03:52:46.506Z,152.90
2019-05-22T03:55:15.618Z,153.87
2019-05-22T03:57:43.959Z,152.22
2019-05-22T04:00:15.073Z,152.05
2019-05-22T04:02:43.581Z,152.30
2019-05-22T04:05:12.366Z,152.80
2019-05-22T04:07:40.387Z,151.87
2019-05-22T04:10:09.827Z,148.65
2019-05-22T04:12:37.211Z,148.53
2019-05-22T04:15:07.039Z,148.75
2019-05-22T04:17:35.644Z,149.42
2019-05-22T04:20:04.043Z,149.25
2019-05-22T04:22:31.411Z,146.85
2019-05-22T04:24:59.049Z,147.25
2019-05-22T04:27:26.051Z,148.15
2019-05-22T04:29:53.266Z,146.82
2019-05-22T04:32:28.856Z,147.87
2019-05-22T04:34:56.464Z,148.82
2019-05-22T04:37:24.280Z,148.30
2019-05-22T04:39:55.822Z,148.47
2019-05-22T04:42:24.131Z,148.20
2019-05-22T04:45:17.950Z,148.40
2019-05-22T04:47:56.895Z,146.70
2019-05-22T04:50:24.578Z,147.80
2019-05-22T04:52:52.525Z,149.10
2019-05-22T04:55:20.246Z,148.32
2019-05-22T04:57:48.879Z,148.80
2019-05-22T05:00:17.927Z,149.35
2019-05-22T05:02:45.065Z,150.62
2019-05-22T05:05:12.823Z,150.78
2019-05-22T05:07:40.926Z,149.50
2019-05-22T05:10:08.510Z,147.25
2019-05-22T05:12:35.776Z,150.35
2019-05-22T05:15:04.546Z,150.85
2019-05-22T05:17:31.703Z,148.72
2019-05-22T05:19:58.817Z,150.45
2019-05-22T05:22:40.559Z,150.85
2019-05-22T05:25:09.076Z,152.50
2019-05-22T05:27:36.095Z,150.03
2019-05-22T05:30:03.307Z,150.50
2019-05-22T05:32:31.116Z,149.25
2019-05-22T05:35:04.782Z,150.62
2019-05-22T05:37:31.970Z,149.68
2019-05-22T05:40:27.133Z,152.43
2019-05-22T05:42:54.220Z,151.30
2019-05-22T05:45:21.767Z,150.07
2019-05-22T05:47:49.594Z,149.65
2019-05-22T05:50:19.540Z,150.18
2019-05-22T05:52:48.639Z,150.90
2019-05-22T05:55:16.974Z,148.45
2019-05-22T05:58:22.868Z,149.53
2019-05-22T06:00:54.191Z,149.55
2019-05-22T06:03:33.300Z,150.80
2019-05-22T06:06:04.947Z,149.45
2019-05-22T06:08:33.042Z,149.40
2019-05-22T06:11:44.629Z,147.78
2019-05-22T06:14:23.371Z,147.82
2019-05-22T06:17:37.759Z,149.90
2019-05-22T06:20:11.690Z,148.93
2019-05-22T06:22:41.611Z,149.60
2019-05-22T06:25:09.811Z,147.02
2019-05-22T06:27:52.258Z,149.62
2019-05-22T06:30:40.633Z,151.12
2019-05-22T06:33:43.486Z,147.95
2019-05-22T06:36:18.578Z,148.05
2019-05-22T06:38:52.636Z,146.65
2019-05-22T06:41:23.780Z,147.00
2019-05-22T06:44:35.272Z,145.77
2019-05-22T06:47:04.452Z,143.87
2019-05-22T06:49:52.650Z,145.90
2019-05-22T06:52:20.242Z,144.50
2019-05-22T06:54:48.682Z,144.55
2019-05-22T06:57:19.649Z,145.38
2019-05-22T06:59:49.246Z,143.70
2019-05-22T07:02:18.711Z,145.30
2019-05-22T07:04:48.324Z,147.13
2019-05-22T07:07:16.645Z,144.55
2019-05-22T07:09:44.902Z,146.07
2019-05-22T07:12:14.891Z,149.18
2019-05-22T07:15:13.129Z,150.45
2019-05-22T07:17:41.253Z,148.35
2019-05-22T07:20:12.455Z,152.90
2019-05-22T07:22:39.413Z,150.70
2019-05-22T07:25:08.835Z,147.93
2019-05-22T07:27:39.195Z,151.25
2019-05-22T07:30:08.151Z,144.87
2019-05-22T07:32:42.478Z,149.00
2019-05-22T07:35:14.732Z,142.28
2019-05-22T07:37:45.928Z,144.25
2019-05-22T07:40:15.078Z,142.40
2019-05-22T07:42:42.521Z,142.47
2019-05-22T07:45:10.174Z,142.68
2019-05-22T07:47:37.412Z,141.25
2019-05-22T07:50:05.134Z,145.72
2019-05-22T07:52:32.413Z,144.70
2019-05-22T07:55:01.290Z,143.93
2019-05-22T07:57:29.448Z,143.55
2019-05-22T07:59:56.615Z,144.02
2019-05-22T08:02:26.140Z,143.13
2019-05-22T08:04:53.445Z,144.68
2019-05-22T08:07:26.174Z,143.62
2019-05-22T08:09:53.656Z,142.82
2019-05-22T08:12:21.001Z,142.35
2019-05-22T08:14:48.504Z,142.95
2019-05-22T08:17:16.845Z,143.00
2019-05-22T08:19:44.417Z,142.62
2019-05-22T08:22:12.577Z,142.45
2019-05-22T08:24:40.665Z,142.47
2019-05-22T08:27:07.957Z,142.15
2019-05-22T08:29:35.527Z,141.35
2019-05-22T08:32:03.524Z,141.73
2019-05-22T08:34:31.037Z,142.93
2019-05-22T08:37:01.024Z,141.75
2019-05-22T08:39:28.717Z,139.92
2019-05-22T08:41:55.958Z,140.28
2019-05-22T08:44:23.867Z,140.52
2019-05-22T08:46:52.150Z,140.45
2019-05-22T08:49:19.514Z,140.52
2019-05-22T08:51:48.091Z,139.43
2019-05-22T08:54:15.654Z,139.50
2019-05-22T08:56:46.990Z,138.70
2019-05-22T08:59:19.567Z,140.12
2019-05-22T09:01:43.587Z,141.07
2019-05-22T09:04:11.104Z,140.90
2019-05-22T09:06:38.092Z,139.50
2019-05-22T09:09:06.268Z,139.70
2019-05-22T09:11:33.366Z,139.05
2019-05-22T09:14:00.633Z,139.40
2019-05-22T09:16:27.603Z,140.03
2019-05-22T09:18:57.802Z,138.03
2019-05-22T09:21:24.803Z,138.65
2019-05-22T09:23:53.352Z,138.50
2019-05-22T09:26:22.617Z,139.95
2019-05-22T09:28:49.600Z,139.52
2019-05-22T09:31:17.751Z,139.68
2019-05-22T09:33:45.970Z,139.97
2019-05-22T09:36:14.378Z,139.82
2019-05-22T09:38:41.452Z,139.80
2019-05-22T09:41:08.705Z,140.03
2019-05-22T09:43:35.851Z,140.50
2019-05-22T09:46:04.644Z,141.15
2019-05-22T09:48:33.583Z,142.15
2019-05-22T09:51:00.683Z,140.35
2019-05-22T09:53:27.845Z,140.52
2019-05-22T09:55:55.232Z,141.03
2019-05-22T09:58:22.925Z,141.37
2019-05-22T10:00:49.978Z,142.10
2019-05-22T10:03:17.058Z,142.35
2019-05-22T10:05:47.747Z,142.37
2019-05-22T10:08:15.653Z,142.95
2019-05-22T10:10:43.015Z,142.75
2019-05-22T10:13:10.117Z,143.15
2019-05-22T10:15:38.558Z,144.28
2019-05-22T10:18:06.036Z,145.82
2019-05-22T10:20:56.574Z,145.70
2019-05-22T10:23:23.634Z,145.60
2019-05-22T10:25:51.275Z,144.82
2019-05-22T10:28:18.665Z,146.95
2019-05-22T10:30:46.849Z,146.18
2019-05-22T10:33:16.262Z,146.55
2019-05-22T10:35:43.607Z,147.70
2019-05-22T10:38:11.082Z,145.22
2019-05-22T10:40:38.319Z,145.97
2019-05-22T10:43:05.731Z,145.12
2019-05-22T10:45:33.124Z,147.43
2019-05-22T10:48:01.182Z,147.05
2019-05-22T10:50:31.101Z,144.37
2019-05-22T10:53:01.018Z,145.60
2019-05-22T10:55:29.047Z,146.57
2019-05-22T10:57:58.811Z,148.07
2019-05-22T11:00:29.417Z,145.02
2019-05-22T11:02:57.590Z,147.25
2019-05-22T11:05:26.055Z,147.05
2019-05-22T11:07:53.111Z,149.95
2019-05-22T11:10:23.646Z,147.53
2019-05-22T11:12:51.145Z,149.05
2019-05-22T11:15:18.828Z,148.30
2019-05-22T11:17:46.596Z,148.47
2019-05-22T11:20:32.763Z,149.27
2019-05-22T11:23:11.438Z,149.87
2019-05-22T11:25:48.688Z,149.68
2019-05-22T11:28:19.232Z,150.57
2019-05-22T11:30:46.205Z,152.35
2019-05-22T11:33:13.970Z,153.15
2019-05-22T11:35:40.959Z,149.10
2019-05-22T11:38:10.462Z,151.75
2019-05-22T11:40:53.645Z,150.93
2019-05-22T11:43:26.091Z,149.02
2019-05-22T11:45:53.085Z,148.38
2019-05-22T11:48:27.738Z,147.55
2019-05-22T11:50:55.957Z,150.32
2019-05-22T11:53:23.521Z,149.93
2019-05-22T11:55:52.693Z,153.50
2019-05-22T11:58:19.791Z,148.05
2019-05-22T12:00:56.206Z,148.53
2019-05-22T12:03:23.979Z,149.68
2019-05-22T12:05:55.759Z,148.75
2019-05-22T12:08:27.328Z,148.28
2019-05-22T12:10:56.701Z,149.82
2019-05-22T12:13:25.200Z,150.35
2019-05-22T12:15:58.863Z,148.57
2019-05-22T12:18:32.253Z,147.15
2019-05-22T12:21:01.609Z,149.60
2019-05-22T12:23:29.614Z,152.80
2019-05-22T12:25:56.706Z,149.32
2019-05-22T12:28:26.495Z,152.78
2019-05-22T12:30:54.589Z,151.05
2019-05-22T12:33:22.192Z,150.12
2019-05-22T12:35:49.897Z,153.50
2019-05-22T12:38:17.267Z,153.00
2019-05-22T12:40:44.347Z,155.18
2019-05-22T12:43:11.414Z,155.35
2019-05-22T12:46:05.640Z,155.00
2019-05-22T12:48:36.822Z,153.97
2019-05-22T12:51:11.935Z,151.70
2019-05-22T12:53:41.077Z,150.87
2019-05-22T12:56:10.454Z,152.82
2019-05-22T12:58:40.412Z,151.30
2019-05-22T13:01:17.987Z,152.43
2019-05-22T13:03:48.723Z,150.00
2019-05-22T13:06:18.230Z,151.12
2019-05-22T13:08:45.624Z,152.50
2019-05-22T13:11:20.161Z,155.57
2019-05-22T13:13:49.463Z,152.20
2019-05-22T13:16:16.994Z,151.27
2019-05-22T13:18:53.642Z,151.25
2019-05-22T13:21:29.448Z,152.25
2019-05-22T13:23:59.638Z,156.63
2019-05-22T13:26:29.263Z,156.78
2019-05-22T13:28:57.011Z,152.72
2019-05-22T13:31:29.372Z,154.30
2019-05-22T13:33:57.680Z,153.35
2019-05-22T13:36:31.616Z,155.22
2019-05-22T13:38:59.234Z,155.00
2019-05-22T13:41:26.700Z,154.07
2019-05-22T13:43:54.078Z,153.35
2019-05-22T13:46:21.744Z,155.30
2019-05-22T13:48:49.022Z,155.22
2019-05-22T13:51:16.282Z,152.38
2019-05-22T13:53:48.798Z,153.42
2019-05-22T13:56:17.361Z,152.22
2019-05-22T13:58:44.883Z,153.87
2019-05-22T14:01:11.946Z,158.60
2019-05-22T14:03:41.217Z,156.47
2019-05-22T14:06:08.558Z,157.22
2019-05-22T14:08:35.913Z,155.65
2019-05-22T14:11:03.994Z,155.60
2019-05-22T14:13:31.283Z,156.05
2019-05-22T14:16:01.398Z,156.47
2019-05-22T14:18:29.349Z,155.80
2019-05-22T14:20:56.524Z,160.70
2019-05-22T14:23:23.716Z,163.43
2019-05-22T14:25:51.611Z,158.03
2019-05-22T14:28:20.758Z,157.78
2019-05-22T14:30:48.531Z,162.77
2019-05-22T14:33:16.079Z,159.00
2019-05-22T14:35:48.973Z,160.32
2019-05-22T14:38:15.091Z,163.60
2019-05-22T14:40:42.811Z,163.87
2019-05-22T14:43:10.596Z,155.82
2019-05-22T14:45:38.287Z,156.20
2019-05-22T14:48:05.536Z,156.32
2019-05-22T14:50:33.357Z,152.65
2019-05-22T14:53:00.330Z,153.85
2019-05-22T14:55:29.025Z,153.20
2019-05-22T14:57:56.876Z,155.70
2019-05-22T15:00:27.251Z,154.60
2019-05-22T15:02:58.525Z,155.48
2019-05-22T15:05:24.265Z,156.00
2019-05-22T15:07:57.675Z,154.70
2019-05-22T15:10:26.165Z,155.67
2019-05-22T15:13:08.334Z,156.02
2019-05-22T15:15:40.517Z,156.60
2019-05-22T15:18:07.175Z,158.50
2019-05-22T15:21:01.581Z,155.85
2019-05-22T15:23:30.421Z,154.97
2019-05-22T15:26:01.589Z,155.22
2019-05-22T15:28:29.370Z,155.37
2019-05-22T15:30:56.538Z,153.42
2019-05-22T15:33:29.858Z,156.72
2019-05-22T15:35:57.109Z,157.45
2019-05-22T15:38:26.181Z,155.10
2019-05-22T15:40:55.058Z,153.62
2019-05-22T15:43:24.079Z,154.35
2019-05-22T15:45:54.761Z,152.78
2019-05-22T15:48:29.237Z,151.53
2019-05-22T15:50:59.406Z,152.35
2019-05-22T15:53:34.170Z,151.75
2019-05-22T15:56:03.841Z,153.60
2019-05-22T15:58:33.318Z,152.55
2019-05-22T16:01:01.341Z,154.07
2019-05-22T16:03:29.475Z,150.15
2019-05-22T16:05:58.316Z,149.47
2019-05-22T16:08:31.216Z,150.85
2019-05-22T16:11:19.374Z,150.32
2019-05-22T16:13:47.901Z,152.78
2019-05-22T16:16:18.186Z,149.47
2019-05-22T16:18:45.803Z,151.90
2019-05-22T16:21:13.855Z,150.18
2019-05-22T16:23:44.544Z,150.75
2019-05-22T16:26:13.314Z,150.65
2019-05-22T16:28:43.844Z,148.38
2019-05-22T16:31:16.406Z,149.15
2019-05-22T16:33:52.787Z,151.93
2019-05-22T16:36:21.199Z,150.00
2019-05-22T16:38:50.275Z,151.27
2019-05-22T16:41:18.645Z,149.00
2019-05-22T16:43:49.619Z,151.42
2019-05-22T16:46:18.347Z,156.65
2019-05-22T16:48:47.407Z,150.50
2019-05-22T16:51:19.714Z,150.20
2019-05-22T16:53:56.176Z,149.00
2019-05-22T16:56:24.823Z,151.90
2019-05-22T16:58:52.891Z,151.15
2019-05-22T17:01:21.436Z,151.53
2019-05-22T17:03:53.197Z,149.70
2019-05-22T17:06:22.899Z,147.95
2019-05-22T17:08:50.429Z,150.57
2019-05-22T17:11:18.197Z,149.47
2019-05-22T17:13:46.618Z,149.93
2019-05-22T17:16:15.991Z,151.68
2019-05-22T17:18:48.116Z,150.47
2019-05-22T17:21:16.286Z,148.75
2019-05-22T17:23:44.172Z,148.35
2019-05-22T17:26:12.379Z,148.57
2019-05-22T17:28:40.279Z,148.70
2019-05-22T17:31:08.047Z,148.62
2019-05-22T17:33:35.307Z,152.07
2019-05-22T17:36:05.541Z,150.65
2019-05-22T17:38:32.787Z,149.93
2019-05-22T17:41:00.685Z,149.60
2019-05-22T17:43:30.676Z,150.72
2019-05-22T17:45:57.895Z,150.00
2019-05-22T17:48:28.373Z,150.15
2019-05-22T17:50:56.040Z,150.87
2019-05-22T17:53:24.290Z,151.93
2019-05-22T17:55:54.488Z,151.85
2019-05-22T17:58:30.105Z,150.47
2019-05-22T18:00:58.227Z,153.32
2019-05-22T18:03:25.347Z,152.10
2019-05-22T18:05:55.762Z,150.20
2019-05-22T18:08:33.925Z,151.55
2019-05-22T18:11:05.893Z,149.55
2019-05-22T18:13:38.147Z,152.62
2019-05-22T18:16:05.602Z,148.50
2019-05-22T18:18:34.955Z,152.40
2019-05-22T18:21:09.974Z,148.97
2019-05-22T18:23:39.364Z,150.35
2019-05-22T18:26:06.965Z,149.40
2019-05-22T18:28:34.403Z,147.60
2019-05-22T18:31:06.989Z,149.47
2019-05-22T18:33:40.090Z,152.30
2019-05-22T18:36:28.659Z,149.93
2019-05-22T18:39:05.283Z,150.82
2019-05-22T18:41:32.846Z,150.03
2019-05-22T18:44:00.561Z,150.35
2019-05-22T18:46:28.297Z,149.15
2019-05-22T18:48:56.076Z,150.18
2019-05-22T18:51:24.121Z,149.80
2019-05-22T18:53:53.467Z,149.18
2019-05-22T18:56:26.083Z,149.20
2019-05-22T18:58:55.610Z,148.13
2019-05-22T19:01:22.828Z,147.72
2019-05-22T19:03:50.183Z,148.05
2019-05-22T19:06:29.680Z,149.10
2019-05-22T19:08:49.805Z,146.47
2019-05-22T19:11:17.252Z,150.10
2019-05-22T19:13:54.884Z,148.95
2019-05-22T19:16:31.984Z,149.75
2019-05-22T19:19:01.851Z,151.18
2019-05-22T19:21:30.469Z,147.82
2019-05-22T19:24:02.939Z,149.35
2019-05-22T19:26:30.164Z,149.55
2019-05-22T19:28:57.692Z,149.20
2019-05-22T19:31:28.064Z,148.57
2019-05-22T19:33:55.385Z,148.68
2019-05-22T19:36:29.766Z,147.57
2019-05-22T19:38:57.209Z,150.68
2019-05-22T19:41:30.364Z,146.98
2019-05-22T19:44:06.726Z,148.15
2019-05-22T19:46:42.450Z,149.20
2019-05-22T19:49:12.867Z,149.12
2019-05-22T19:51:44.545Z,146.28
2019-05-22T19:54:12.126Z,148.62
2019-05-22T19:56:49.349Z,146.85
2019-05-22T19:59:17.357Z,147.90
2019-05-22T20:01:55.743Z,149.23
2019-05-22T20:04:23.686Z,147.47
2019-05-22T20:06:50.986Z,147.57
2019-05-22T20:09:20.737Z,146.57
2019-05-22T20:11:48.501Z,147.82
2019-05-22T20:14:18.737Z,149.35
2019-05-22T20:16:46.228Z,149.75
2019-05-22T20:19:20.370Z,146.70
2019-05-22T20:21:50.794Z,148.57
2019-05-22T20:24:19.769Z,148.62
2019-05-22T20:26:49.310Z,148.55
2019-05-22T20:29:18.542Z,147.72
2019-05-22T20:31:48.534Z,146.37
2019-05-22T20:34:27.007Z,147.70
2019-05-22T20:36:55.902Z,147.17
2019-05-22T20:39:25.037Z,146.57
2019-05-22T20:41:59.036Z,146.07
2019-05-22T20:44:38.063Z,147.57
2019-05-22T20:47:10.841Z,145.70
2019-05-22T20:49:43.507Z,144.37
2019-05-22T20:52:13.809Z,145.22
2019-05-22T20:54:47.985Z,146.18
2019-05-22T20:57:20.254Z,147.10
2019-05-22T20:59:50.660Z,147.40
2019-05-22T21:02:23.390Z,144.55
2019-05-22T21:04:56.056Z,144.55
2019-05-22T21:07:33.350Z,147.07
2019-05-22T21:10:10.143Z,144.55
2019-05-22T21:12:48.423Z,146.53
2019-05-22T21:15:15.811Z,143.45
2019-05-22T21:17:43.184Z,144.97
2019-05-22T21:20:15.173Z,144.02
2019-05-22T21:22:44.032Z,143.52
2019-05-22T21:25:11.358Z,144.00
2019-05-22T21:27:38.759Z,143.95
2019-05-22T21:30:09.507Z,142.05
2019-05-22T21:32:37.786Z,143.43
2019-05-22T21:35:13.696Z,145.10
2019-05-22T21:37:41.116Z,144.50
2019-05-22T21:40:09.024Z,144.87
2019-05-22T21:42:38.756Z,142.60
2019-05-22T21:45:08.823Z,143.43
2019-05-22T21:47:45.689Z,144.53
2019-05-22T21:50:14.051Z,145.60
2019-05-22T21:52:45.981Z,144.72
2019-05-22T21:55:15.333Z,146.15
2019-05-22T21:57:46.201Z,143.82
2019-05-22T22:00:21.535Z,143.70
2019-05-22T22:02:51.836Z,145.02
2019-05-22T22:05:19.263Z,142.32
2019-05-22T22:07:46.764Z,144.32
2019-05-22T22:10:15.304Z,143.65
2019-05-22T22:12:43.246Z,145.75
2019-05-22T22:15:12.604Z,142.37
2019-05-22T22:17:41.483Z,143.55
2019-05-22T22:20:09.671Z,143.15
2019-05-22T22:22:37.688Z,143.62
2019-05-22T22:25:09.593Z,143.40
2019-05-22T22:27:37.918Z,143.75
2019-05-22T22:30:10.619Z,143.70
2019-05-22T22:32:39.040Z,143.40
2019-05-22T22:35:11.182Z,142.70
2019-05-22T22:37:38.747Z,142.98
2019-05-22T22:40:08.064Z,142.47
2019-05-22T22:42:37.353Z,142.68
2019-05-22T22:45:10.707Z,142.90
2019-05-22T22:47:41.983Z,142.65
2019-05-22T22:50:12.366Z,142.68
2019-05-22T22:52:42.351Z,142.28
2019-05-22T22:55:12.502Z,142.05
2019-05-22T22:57:40.272Z,143.07
2019-05-22T23:00:11.415Z,143.35
2019-05-22T23:02:40.935Z,141.97
2019-05-22T23:05:10.607Z,144.43
2019-05-22T23:07:41.001Z,143.70
2019-05-22T23:10:10.400Z,141.68
2019-05-22T23:12:38.953Z,141.18
2019-05-22T23:15:10.125Z,142.20
2019-05-22T23:17:40.093Z,143.22
2019-05-22T23:20:13.103Z,142.53
2019-05-22T23:22:39.749Z,143.22
2019-05-22T23:25:09.438Z,143.80
2019-05-22T23:27:39.095Z,143.20
2019-05-22T23:30:14.110Z,144.68
2019-05-22T23:32:46.289Z,143.10
2019-05-22T23:35:28.616Z,142.75
2019-05-22T23:38:21.192Z,144.43
2019-05-22T23:40:59.452Z,140.57
2019-05-22T23:43:33.022Z,143.28
2019-05-22T23:46:02.067Z,143.40
2019-05-22T23:48:30.240Z,142.20
2019-05-22T23:50:58.697Z,146.02
2019-05-22T23:53:27.536Z,143.32
2019-05-22T23:55:58.135Z,142.98
2019-05-22T23:58:27.706Z,141.43
